Time;durP1;ratioP1;P1;durP2;ratioP2;P2;SDS_P1;SDS_P2;PMS_P1;PMS_P2;Temp;Humidity;BMP_temperature;BMP_pressure;BME280_temperature;BME280_humidity;BME280_pressure;Samples;Min_cycle;Max_cycle;Signal;HPM_P1;HPM_P2
2022/01/12 00:00:51;;;;;;;40.67;26.27;;;;;;;5.08;48.12;96786.38;4990965;28;20113;-63
2022/01/12 00:03:17;;;;;;;36.28;25.33;;;;;;;6.07;47.97;96913.19;4991430;28;20125;-64
2022/01/12 00:05:43;;;;;;;38.38;24.85;;;;;;;3.27;48.65;96511.16;4992004;28;20551;-63
2022/01/12 00:08:08;;;;;;;40.58;25.98;;;;;;;5.26;49.04;96803.91;4990846;28;20018;-62
2022/01/12 00:10:34;;;;;;;40.88;27.17;;;;;;;3.69;48.59;96538.31;4989385;28;20026;-64
2022/01/12 00:13:00;;;;;;;36.28;24.90;;;;;;;6.08;48.03;96935.94;4991065;28;20081;-63
2022/01/12 00:15:25;;;;;;;42.42;26.88;;;;;;;5.89;48.66;96908.81;4991324;28;20053;-63
2022/01/12 00:17:51;;;;;;;39.22;26.15;;;;;;;5.57;48.55;96884.59;4990912;28;20027;-62
2022/01/12 00:20:16;;;;;;;38.65;25.10;;;;;;;4.34;48.41;96743.69;4990481;28;20030;-62
2022/01/12 00:22:42;;;;;;;42.85;27.35;;;;;;;5.31;48.42;96835.69;4992241;28;20033;-63
2022/01/12 00:25:25;;;;;;;37.90;25.08;;;;;;;5.36;48.49;96887.78;4990958;28;20366;-62
2022/01/12 00:33:20;;;;;;;38.63;25.48;;;;;;;4.26;49.20;96680.00;4990718;28;20041;-61
2022/01/12 00:35:48;;;;;;;41.03;26.45;;;;;;;5.68;48.96;96889.09;4991425;28;20388;-61
2022/01/12 00:38:16;;;;;;;41.00;25.60;;;;;;;3.86;48.37;96631.38;4990055;28;20054;-61
2022/01/12 00:40:44;;;;;;;44.13;27.55;;;;;;;5.43;49.32;96862.91;4990069;28;20133;-61
2022/01/12 00:43:11;;;;;;;48.58;28.48;;;;;;;4.75;48.80;96768.44;4990748;28;20046;-63
2022/01/12 00:45:41;;;;;;;49.20;29.48;;;;;;;5.39;49.38;96863.59;4990717;28;20026;-64
2022/01/12 00:48:08;;;;;;;45.08;27.67;;;;;;;5.02;48.96;96786.47;4990345;28;20023;-61
2022/01/12 00:50:33;;;;;;;43.97;27.05;;;;;;;3.97;48.70;96618.47;4990178;28;20026;-61
2022/01/12 00:52:58;;;;;;;43.22;26.67;;;;;;;4.35;48.45;96647.03;4991101;28;20037;-61
2022/01/12 00:55:24;;;;;;;44.00;26.63;;;;;;;4.86;48.22;96719.38;4990478;28;20026;-61
2022/01/12 00:57:51;;;;;;;40.88;26.83;;;;;;;4.97;48.09;96734.41;4990015;28;20555;-61
2022/01/12 01:00:16;;;;;;;41.70;27.42;;;;;;;6.10;47.81;96867.84;4990010;28;20022;-61
2022/01/12 01:02:42;;;;;;;38.88;26.35;;;;;;;6.57;47.20;96949.66;4990379;28;20547;-61
2022/01/12 01:05:08;;;;;;;38.65;25.77;;;;;;;6.55;47.80;96921.81;4989821;28;20025;-61
2022/01/12 01:07:33;;;;;;;43.58;26.40;;;;;;;5.79;47.19;96837.31;4991268;28;20032;-61
2022/01/12 01:10:07;;;;;;;42.67;26.65;;;;;;;4.08;47.19;96554.47;4989519;28;20068;-61
2022/01/12 01:12:35;;;;;;;47.38;28.13;;;;;;;6.33;47.27;96969.22;4989073;28;20034;-61
2022/01/12 01:15:10;;;;;;;46.58;28.17;;;;;;;4.55;47.15;96644.88;4990230;28;20026;-61
2022/01/12 01:25:44;;;;;;;47.92;30.38;;;;;;;5.53;48.86;96936.25;4990206;28;20132;-63
2022/01/12 01:28:11;;;;;;;52.70;30.58;;;;;;;4.73;49.15;96877.78;4989737;28;20022;-63
2022/01/12 01:30:39;;;;;;;57.35;32.72;;;;;;;5.24;49.49;96910.72;4989487;28;20022;-63
2022/01/12 01:33:08;;;;;;;55.67;31.70;;;;;;;3.08;49.67;96595.34;4988829;28;20026;-60
2022/01/12 01:35:36;;;;;;;58.53;32.88;;;;;;;5.00;49.90;96900.09;4989945;28;20034;-63
2022/01/12 01:38:03;;;;;;;61.30;32.40;;;;;;;2.86;50.07;96609.94;4990287;28;20117;-63
2022/01/12 01:40:30;;;;;;;66.68;35.03;;;;;;;4.36;50.38;96836.50;4989376;28;20032;-61
2022/01/12 01:53:47;;;;;;;83.18;38.53;;;;;;;3.82;51.36;96866.28;4994010;28;20041;-61
2022/01/12 01:56:13;;;;;;;77.40;36.70;;;;;;;3.65;51.09;96808.97;4993693;28;20034;-62
2022/01/12 01:58:39;;;;;;;81.50;39.05;;;;;;;2.79;52.39;96740.63;4993735;28;20026;-60
2022/01/12 02:01:05;;;;;;;83.82;39.15;;;;;;;3.26;53.15;96804.09;4993348;28;20053;-60
2022/01/12 02:03:31;;;;;;;92.57;40.83;;;;;;;2.35;53.08;96639.94;4993794;28;20026;-63
2022/01/12 02:05:59;;;;;;;86.18;41.10;;;;;;;3.70;52.89;96844.38;4994499;28;20144;-63
2022/01/12 02:08:25;;;;;;;90.57;41.20;;;;;;;4.08;53.10;96918.66;4993091;28;20498;-61
2022/01/12 02:10:55;;;;;;;85.28;39.08;;;;;;;2.57;52.56;96701.59;4993254;28;20110;-61
2022/01/12 02:13:21;;;;;;;88.05;40.35;;;;;;;2.37;52.56;96658.13;4993495;28;20673;-61
2022/01/12 02:15:47;;;;;;;99.07;43.92;;;;;;;3.36;52.20;96821.00;4993607;28;20496;-61
2022/01/12 02:40:34;;;;;;;87.60;35.25;;;;;;;0.27;59.47;96741.50;4992669;28;20034;-61
2022/01/12 02:43:14;;;;;;;84.13;39.15;;;;;;;0.29;59.95;96744.72;4992953;28;20065;-61
2022/01/12 02:50:42;;;;;;;70.35;33.95;;;;;;;0.70;61.22;96824.91;4992719;28;20077;-61
2022/01/12 02:51:35;;;;;;;70.35;36.00;;;;;;;0.81;59.04;96680.25;4993436;28;20481;-61
2022/01/12 02:54:00;;;;;;;82.95;38.17;;;;;;;2.19;57.18;96827.66;4993084;28;20023;-61
2022/01/12 02:56:29;;;;;;;80.45;38.38;;;;;;;0.67;58.69;96694.41;4992421;28;20045;-61
2022/01/12 02:58:58;;;;;;;81.90;38.95;;;;;;;2.31;57.42;96843.59;4991724;28;20026;-62
2022/01/12 03:04:02;;;;;;;82.22;37.45;;;;;;;1.49;55.80;96685.13;4992478;28;20030;-62
2022/01/12 03:06:36;;;;;;;71.95;36.05;;;;;;;0.09;58.22;96631.38;4993237;28;20573;-60
2022/01/12 03:09:04;;;;;;;75.50;37.55;;;;;;;0.71;57.75;96658.91;4992704;28;20038;-62
2022/01/12 03:11:31;;;;;;;73.03;37.47;;;;;;;1.15;57.09;96736.03;4992371;28;20029;-63
2022/01/12 03:13:58;;;;;;;65.07;33.80;;;;;;;1.25;59.74;96841.25;4992281;28;20113;-62
2022/01/12 03:16:25;;;;;;;61.00;32.08;;;;;;;-0.02;60.48;96712.06;4992285;28;20026;-62
2022/01/12 03:18:59;;;;;;;65.95;30.48;;;;;;;-0.44;61.63;96681.78;4991781;28;20476;-61
2022/01/12 03:21:31;;;;;;;71.38;35.28;;;;;;;1.62;60.42;96901.94;4991621;28;20138;-62
2022/01/12 03:23:58;;;;;;;63.58;33.85;;;;;;;0.47;58.93;96686.56;4990695;28;20023;-62
2022/01/12 03:26:27;;;;;;;63.45;33.70;;;;;;;0.89;58.47;96685.28;4991940;28;20102;-62
2022/01/12 03:28:54;;;;;;;66.90;34.45;;;;;;;0.90;57.68;96731.44;4991592;28;20515;-62
2022/01/12 03:31:23;;;;;;;65.88;35.22;;;;;;;2.29;59.43;96987.41;4991560;28;20041;-62
2022/01/12 03:33:56;;;;;;;61.97;30.55;;;;;;;-0.42;61.87;96705.91;4991914;28;20074;-62
2022/01/12 03:36:28;;;;;;;68.95;35.72;;;;;;;2.18;58.89;96931.06;4990592;28;20057;-63
2022/01/12 03:38:58;;;;;;;;;;;;;;;2.02;59.84;96969.09;4992220;28;20088;-60
2022/01/12 03:41:29;;;;;;;69.43;34.47;;;;;;;0.95;59.24;96742.09;4991466;28;19914;-62
2022/01/12 03:43:58;;;;;;;65.13;31.83;;;;;;;0.94;60.76;96860.22;4991639;28;20030;-60
2022/01/12 03:46:29;;;;;;;82.75;38.95;;;;;;;0.93;59.06;96696.19;4991666;28;20042;-60
2022/01/12 03:48:55;;;;;;;69.00;35.33;;;;;;;0.01;58.83;96608.06;4991516;28;20392;-61
2022/01/12 03:51:20;;;;;;;79.50;37.17;;;;;;;1.21;58.67;96800.72;4990779;28;20073;-61
2022/01/12 03:53:46;;;;;;;75.22;35.85;;;;;;;2.25;59.17;97020.31;4993192;28;20030;-61
2022/01/12 03:56:12;;;;;;;76.07;37.17;;;;;;;2.16;59.14;96940.19;4991431;28;20361;-61
2022/01/12 03:58:37;;;;;;;85.57;41.08;;;;;;;1.53;57.63;96764.97;4991378;28;20563;-61
2022/01/12 04:01:03;;;;;;;80.63;37.08;;;;;;;1.68;58.51;96870.44;4991025;28;20070;-61
2022/01/12 04:03:35;;;;;;;74.75;37.45;;;;;;;2.09;58.88;96896.38;4991572;28;20030;-60
2022/01/12 04:08:45;;;;;;;73.32;33.13;;;;;;;0.75;56.75;96636.56;4992483;28;20046;-61
2022/01/12 04:11:10;;;;;;;75.82;36.90;;;;;;;2.77;56.93;96958.94;4988837;28;20038;-61
2022/01/12 04:13:35;;;;;;;71.95;36.63;;;;;;;3.37;55.21;96908.59;4991399;28;20065;-61
2022/01/12 04:16:05;;;;;;;83.85;40.00;;;;;;;4.34;54.31;97024.78;4991318;28;20077;-61
2022/01/12 04:18:31;;;;;;;86.07;40.13;;;;;;;2.18;53.92;96625.75;4990952;28;20038;-61
2022/01/12 04:21:00;;;;;;;85.38;41.03;;;;;;;3.92;53.35;96927.94;4990241;28;20105;-61
2022/01/12 04:23:25;;;;;;;87.72;40.47;;;;;;;1.97;53.30;96637.41;4992367;28;20067;-61
2022/01/12 04:25:57;;;;;;;89.30;40.40;;;;;;;2.67;53.12;96737.88;4990964;28;20038;-62
2022/01/12 04:28:24;;;;;;;84.18;40.78;;;;;;;3.38;53.18;96845.28;4990756;28;20089;-61
2022/01/12 04:30:51;;;;;;;84.63;40.17;;;;;;;3.49;52.51;96804.28;4990501;28;20350;-61
2022/01/12 04:33:18;;;;;;;85.30;41.08;;;;;;;3.53;52.65;96797.56;4990815;28;20534;-61
2022/01/12 04:35:47;;;;;;;83.93;39.78;;;;;;;3.30;52.15;96748.22;4988952;28;20081;-61
2022/01/12 04:38:14;;;;;;;93.35;44.35;;;;;;;4.55;52.17;97002.47;4991518;28;20093;-61
2022/01/12 04:40:40;;;;;;;86.22;40.63;;;;;;;3.97;52.36;96926.50;4990165;28;20057;-61
2022/01/12 04:43:08;;;;;;;94.40;42.90;;;;;;;4.40;52.82;96984.38;4990533;28;20022;-61
2022/01/12 04:50:52;;;;;;;83.50;40.08;;;;;;;3.41;52.04;96780.88;4989910;28;20110;-61
2022/01/12 04:53:19;;;;;;;75.20;37.28;;;;;;;2.91;51.71;96675.81;4990446;28;20396;-61
2022/01/12 04:55:46;;;;;;;75.22;36.55;;;;;;;3.69;51.20;96759.34;4989069;28;20034;-61
2022/01/12 04:58:12;;;;;;;78.82;37.97;;;;;;;4.07;51.28;96818.84;4990015;28;20084;-60
2022/01/12 05:00:38;;;;;;;70.20;36.92;;;;;;;4.61;50.72;96861.94;4990066;28;20022;-61
2022/01/12 05:08:51;;;;;;;74.28;37.78;;;;;;;4.26;51.27;96946.84;4991358;28;20103;-61
2022/01/12 05:14:01;;;;;;;68.75;34.75;;;;;;;3.31;50.76;96725.34;4990363;28;20057;-61
2022/01/12 05:16:27;;;;;;;76.93;38.75;;;;;;;3.57;50.36;96709.25;4990347;28;20404;-61
2022/01/12 05:18:55;;;;;;;74.03;37.33;;;;;;;3.72;50.86;96808.09;4989970;28;20027;-61
2022/01/12 05:21:23;;;;;;;69.63;34.03;;;;;;;1.98;56.48;96917.19;4989411;28;20030;-61
2022/01/12 05:23:49;;;;;;;68.88;34.83;;;;;;;3.91;54.39;97039.53;4991324;28;20057;-61
2022/01/12 05:26:15;;;;;;;70.88;37.13;;;;;;;2.51;52.55;96718.22;4990030;28;20030;-61
2022/01/12 05:28:41;;;;;;;75.10;37.40;;;;;;;3.22;52.13;96758.22;4989975;28;20041;-61
2022/01/12 05:31:08;;;;;;;68.55;35.38;;;;;;;4.84;51.13;96975.34;4989641;28;20377;-64
2022/01/12 05:33:34;;;;;;;78.05;40.10;;;;;;;4.59;51.75;97007.09;4990330;28;20109;-65
2022/01/12 05:36:03;;;;;;;72.88;37.00;;;;;;;4.96;51.94;97020.22;4989668;28;20061;-64
2022/01/12 05:38:29;;;;;;;68.40;34.88;;;;;;;5.03;50.33;96986.69;4991169;28;20030;-63
2022/01/12 05:41:02;;;;;;;58.65;32.53;;;;;;;4.79;49.68;96919.84;4989501;28;20026;-63
2022/01/12 05:43:29;;;;;;;63.42;34.20;;;;;;;5.38;49.65;96989.44;4990115;28;20022;-63
2022/01/12 05:45:58;;;;;;;60.67;32.15;;;;;;;5.46;49.15;96988.31;4989953;28;20027;-64
2022/01/12 05:51:08;;;;;;;61.47;33.15;;;;;;;5.39;48.62;96995.53;4989319;28;20093;-66
2022/01/12 05:53:34;;;;;;;63.40;32.70;;;;;;;5.59;47.95;97019.00;4991288;28;20039;-63
2022/01/12 05:55:59;;;;;;;61.08;32.80;;;;;;;5.71;48.21;97048.88;4989613;28;20142;-66
2022/01/12 05:58:24;;;;;;;68.15;35.58;;;;;;;5.34;48.22;96982.22;4989519;28;20564;-62
2022/01/12 06:00:50;;;;;;;69.53;35.42;;;;;;;4.94;48.05;96928.16;4989295;28;20034;-64
2022/01/12 06:03:15;;;;;;;58.25;32.17;;;;;;;5.64;48.38;97046.34;4989763;28;20039;-64
2022/01/12 06:05:41;;;;;;;59.58;33.00;;;;;;;5.59;48.52;97024.28;4989150;28;20374;-61
2022/01/12 06:08:07;;;;;;;62.45;33.08;;;;;;;5.78;48.57;97046.91;4989653;28;20500;-63
2022/01/12 06:10:32;;;;;;;65.32;32.65;;;;;;;5.83;48.04;97040.97;4989300;28;20027;-61
2022/01/12 06:12:57;;;;;;;68.47;35.38;;;;;;;5.73;48.27;96997.47;4989520;28;20034;-63
2022/01/12 06:15:24;;;;;;;59.47;33.78;;;;;;;5.79;47.63;97014.22;4989641;28;20141;-60
2022/01/12 06:17:49;;;;;;;56.42;32.22;;;;;;;5.50;47.91;96978.13;4988999;28;20113;-60
2022/01/12 06:20:15;;;;;;;59.50;33.60;;;;;;;5.17;48.12;96900.28;4988924;28;20153;-64
2022/01/12 06:22:40;;;;;;;60.40;33.22;;;;;;;5.80;47.83;97015.81;4990274;28;20531;-63
2022/01/12 06:25:11;;;;;;;54.72;32.38;;;;;;;6.08;47.41;97004.63;4988978;28;20026;-65
2022/01/12 06:27:37;;;;;;;54.88;30.98;;;;;;;6.40;47.15;97046.59;4988980;28;20030;-64
2022/01/12 06:31:10;;;;;;;54.28;31.08;;;;;;;6.23;46.75;97028.75;4988980;28;20044;-63
2022/01/12 06:33:00;;;;;;;52.33;30.23;;;;;;;6.18;46.89;97020.69;4989455;28;20027;-67
2022/01/12 06:35:26;;;;;;;57.63;31.20;;;;;;;6.25;46.39;97021.41;4993016;28;20033;-66
2022/01/12 06:37:53;;;;;;;53.90;31.00;;;;;;;6.21;45.88;97038.75;4993470;28;20030;-62
2022/01/12 06:40:19;;;;;;;55.28;30.08;;;;;;;6.16;46.04;97032.56;4992414;28;20112;-60
2022/01/12 06:42:46;;;;;;;53.85;31.92;;;;;;;6.53;46.05;97078.06;4992687;28;20609;-64
2022/01/12 06:45:13;;;;;;;54.55;31.70;;;;;;;6.61;46.05;97088.28;4992539;28;20500;-63
2022/01/12 06:47:39;;;;;;;53.55;30.65;;;;;;;5.98;45.69;97081.78;4992140;28;20037;-64
2022/01/12 06:50:06;;;;;;;60.50;33.45;;;;;;;4.90;45.86;96890.09;4992089;28;20440;-63
2022/01/12 06:52:32;;;;;;;60.03;33.08;;;;;;;5.70;46.36;97003.19;4992199;28;20034;-64
2022/01/12 06:54:57;;;;;;;56.50;31.95;;;;;;;6.47;46.25;97113.34;4993534;28;20089;-65
2022/01/12 06:57:23;;;;;;;69.45;36.25;;;;;;;6.41;46.14;97122.19;4992474;28;20101;-65
2022/01/12 06:59:48;;;;;;;68.22;36.42;;;;;;;5.63;46.25;97031.53;4989405;28;20543;-64
2022/01/12 07:02:14;;;;;;;58.13;32.03;;;;;;;5.77;46.97;97068.28;4992473;28;20034;-64
2022/01/12 07:04:39;;;;;;;59.30;33.90;;;;;;;6.09;46.57;97111.94;4992355;28;20026;-63
2022/01/12 07:07:05;;;;;;;61.08;32.70;;;;;;;6.24;46.75;97111.47;4991685;28;20053;-62
2022/01/12 07:09:30;;;;;;;63.33;34.20;;;;;;;5.85;46.33;97039.72;4993294;28;20058;-63
2022/01/12 07:11:56;;;;;;;62.38;33.17;;;;;;;5.89;46.35;97040.88;4992087;28;20418;-63
2022/01/12 07:14:21;;;;;;;66.55;34.15;;;;;;;6.42;46.76;97129.09;4991974;28;20154;-62
2022/01/12 07:16:47;;;;;;;59.30;31.27;;;;;;;5.99;45.88;97066.78;4992051;28;20034;-62
2022/01/12 07:19:12;;;;;;;56.35;31.83;;;;;;;5.73;45.60;97037.06;4991274;28;20073;-64
2022/01/12 07:21:38;;;;;;;57.28;31.65;;;;;;;6.31;46.54;97098.16;4991617;28;20037;-63
2022/01/12 07:24:03;;;;;;;55.25;31.45;;;;;;;6.32;45.26;97095.28;4993206;28;20114;-64
2022/01/12 07:26:29;;;;;;;55.95;31.08;;;;;;;5.94;45.59;97034.94;4990673;28;20105;-65
2022/01/12 07:28:56;;;;;;;54.38;30.63;;;;;;;6.70;45.91;97147.72;4991351;28;20030;-63
2022/01/12 07:31:22;;;;;;;55.95;32.15;;;;;;;6.77;45.29;97145.78;4991923;28;20481;-64
2022/01/12 07:33:47;;;;;;;52.97;30.52;;;;;;;6.56;45.39;97117.25;4992076;28;20051;-64
2022/01/12 07:36:14;;;;;;;55.95;32.55;;;;;;;6.64;45.48;97130.13;4990002;28;20084;-63
2022/01/12 07:38:40;;;;;;;60.25;33.33;;;;;;;6.59;45.49;97118.63;4992664;28;20022;-63
2022/01/12 07:41:05;;;;;;;51.97;30.88;;;;;;;6.68;45.18;97127.84;4991272;28;20081;-64
2022/01/12 07:43:30;;;;;;;51.58;31.25;;;;;;;6.50;45.46;97147.28;4990293;28;20117;-62
2022/01/12 07:45:56;;;;;;;53.35;29.35;;;;;;;5.62;46.29;97100.38;4990466;28;20026;-62
2022/01/12 07:48:21;;;;;;;50.30;28.83;;;;;;;6.22;46.18;97183.06;4991597;28;20057;-63
2022/01/12 07:50:46;;;;;;;51.88;29.75;;;;;;;6.08;46.34;97136.72;4991401;28;20034;-63
2022/01/12 07:53:12;;;;;;;52.67;31.15;;;;;;;5.66;46.23;97046.09;4991147;28;20098;-65
2022/01/12 07:55:37;;;;;;;53.25;30.83;;;;;;;6.16;45.84;97130.31;4993144;28;20030;-65
2022/01/12 07:58:04;;;;;;;51.65;30.30;;;;;;;5.78;45.62;97068.03;4991127;28;20197;-64
2022/01/12 08:00:29;;;;;;;60.20;33.38;;;;;;;6.66;45.75;97206.59;4990026;28;20033;-63
2022/01/12 08:02:55;;;;;;;56.55;31.88;;;;;;;6.65;45.68;97187.25;4991278;28;20380;-65
2022/01/12 08:05:21;;;;;;;61.25;33.33;;;;;;;6.16;45.32;97091.47;4991429;28;20030;-64
2022/01/12 08:07:48;;;;;;;57.95;32.65;;;;;;;6.62;45.00;97177.16;4990358;28;20042;-64
2022/01/12 08:10:15;;;;;;;57.95;32.85;;;;;;;4.83;45.32;96870.94;4992104;28;20034;-64
2022/01/12 08:12:41;;;;;;;56.63;32.67;;;;;;;6.01;45.11;97038.28;4990814;28;20035;-64
2022/01/12 08:15:09;;;;;;;54.58;31.40;;;;;;;6.28;44.68;97069.53;4990952;28;20527;-65
2022/01/12 08:17:35;;;;;;;53.30;30.20;;;;;;;6.40;44.25;97091.53;4990729;28;20061;-64
2022/01/12 08:20:04;;;;;;;53.58;31.45;;;;;;;6.65;44.22;97102.63;4989560;28;20113;-66
2022/01/12 08:22:29;;;;;;;58.88;31.92;;;;;;;6.19;44.59;97040.84;4990411;28;20033;-64
2022/01/12 08:24:55;;;;;;;48.63;30.17;;;;;;;6.98;44.21;97146.22;4992329;28;20026;-65
2022/01/12 08:27:21;;;;;;;45.15;27.60;;;;;;;6.50;43.28;97115.53;4990805;28;20034;-64
2022/01/12 08:29:49;;;;;;;43.03;26.55;;;;;;;6.33;45.61;97183.31;4990486;28;20038;-64
2022/01/12 08:32:15;;;;;;;40.65;25.88;;;;;;;6.74;44.83;97185.91;4990872;28;20026;-64
2022/01/12 08:34:40;;;;;;;44.47;27.48;;;;;;;5.48;43.89;96957.25;4989399;28;20439;-64
2022/01/12 08:37:05;;;;;;;43.13;27.23;;;;;;;7.11;43.94;97190.97;4989764;28;20045;-65
2022/01/12 08:39:31;;;;;;;39.58;26.60;;;;;;;6.35;44.04;97139.78;4990109;28;20623;-64
2022/01/12 08:41:57;;;;;;;39.40;26.05;;;;;;;6.85;44.54;97180.84;4991035;28;20085;-64
2022/01/12 08:44:22;;;;;;;34.90;25.40;;;;;;;6.20;44.05;97028.41;4990387;28;20030;-64
2022/01/12 08:46:47;;;;;;;37.03;25.10;;;;;;;6.17;43.92;96968.09;4990421;28;20026;-65
2022/01/12 08:49:13;;;;;;;35.58;24.55;;;;;;;7.05;43.16;97086.03;4989565;28;20037;-64
2022/01/12 08:51:39;;;;;;;35.92;24.25;;;;;;;6.27;42.51;96962.22;4988905;28;20034;-66
2022/01/12 08:54:04;;;;;;;32.28;22.60;;;;;;;7.83;42.47;97166.75;4991637;28;20022;-65
2022/01/12 08:56:30;;;;;;;31.63;22.08;;;;;;;8.10;42.26;97221.84;4989825;28;20030;-66
2022/01/12 08:58:56;;;;;;;28.50;20.92;;;;;;;8.19;41.91;97205.31;4989708;28;20121;-66
2022/01/12 09:01:21;;;;;;;31.80;21.92;;;;;;;8.10;41.59;97161.69;4989935;28;20026;-65
2022/01/12 09:03:47;;;;;;;29.80;21.27;;;;;;;8.39;41.45;97204.88;4990386;28;20492;-64
2022/01/12 09:06:13;;;;;;;28.77;21.55;;;;;;;8.46;41.05;97189.63;4990121;28;20022;-65
2022/01/12 09:08:40;;;;;;;27.17;19.90;;;;;;;8.33;40.32;97217.22;4990787;28;20370;-64
2022/01/12 09:11:07;;;;;;;29.15;20.17;;;;;;;7.60;41.39;97141.16;4988133;28;20162;-65
2022/01/12 09:13:32;;;;;;;30.10;20.77;;;;;;;6.59;40.94;96970.56;4990008;28;20057;-64
2022/01/12 09:16:00;;;;;;;26.23;20.55;;;;;;;6.10;40.81;96986.72;4988769;28;20469;-65
2022/01/12 09:18:26;;;;;;;28.95;21.55;;;;;;;7.90;41.26;97198.41;4989885;28;20068;-65
2022/01/12 09:20:53;;;;;;;31.00;21.13;;;;;;;6.45;40.89;96970.84;4988317;28;20019;-66
2022/01/12 09:23:19;;;;;;;27.92;19.77;;;;;;;6.73;41.22;96996.50;4990901;28;20031;-65
2022/01/12 09:25:44;;;;;;;24.65;18.70;;;;;;;6.68;40.77;97011.47;4989602;28;20034;-64
2022/01/12 09:28:10;;;;;;;26.27;19.42;;;;;;;7.05;41.16;97011.94;4989646;28;20026;-66
2022/01/12 09:30:36;;;;;;;24.35;18.25;;;;;;;8.46;40.66;97225.97;4989648;28;20023;-66
2022/01/12 09:33:01;;;;;;;26.90;18.05;;;;;;;7.23;40.21;97013.63;4989891;28;20627;-65
2022/01/12 09:35:28;;;;;;;23.80;18.17;;;;;;;8.05;39.42;97145.69;4989991;28;20369;-63
2022/01/12 09:37:53;;;;;;;25.15;17.85;;;;;;;7.09;39.86;96993.78;4990743;28;20034;-64
2022/01/12 09:40:19;;;;;;;26.00;18.27;;;;;;;8.36;40.08;97159.47;4989294;28;20072;-64
2022/01/12 09:42:48;;;;;;;33.15;18.80;;;;;;;8.03;39.75;97113.31;4989865;28;20022;-64
2022/01/12 09:45:17;;;;;;;30.55;18.17;;;;;;;8.84;39.66;97214.66;4989812;28;20396;-65
2022/01/12 09:47:49;;;;;;;25.08;17.13;;;;;;;8.32;39.69;97161.78;4989394;28;20114;-66
2022/01/12 09:50:21;;;;;;;21.15;16.65;;;;;;;8.63;39.32;97202.91;4987999;28;20357;-65
2022/01/12 09:52:46;;;;;;;22.10;17.05;;;;;;;6.81;39.61;96928.41;4987528;28;20030;-67
2022/01/12 09:55:12;;;;;;;21.70;18.15;;;;;;;7.92;39.28;97095.63;4991136;28;20022;-67
2022/01/12 09:57:38;;;;;;;27.25;18.33;;;;;;;8.74;39.42;97241.00;4989268;28;20037;-66
2022/01/12 10:00:05;;;;;;;22.73;16.55;;;;;;;8.45;39.32;97196.00;4989283;28;20022;-66
2022/01/12 10:02:31;;;;;;;17.73;15.55;;;;;;;7.45;38.79;96997.88;4988106;28;20038;-67
2022/01/12 10:05:04;;;;;;;18.60;16.08;;;;;;;8.74;38.57;97178.13;4989773;28;20077;-66
2022/01/12 10:07:30;;;;;;;19.13;15.90;;;;;;;8.65;38.33;97163.69;4989142;28;20034;-67
2022/01/12 10:10:00;;;;;;;22.50;17.13;;;;;;;8.80;38.28;97187.81;4991929;28;20688;-65
2022/01/12 10:12:27;;;;;;;21.75;16.05;;;;;;;8.64;38.02;97172.66;5006058;23;20041;-65
2022/01/12 10:15:00;;;;;;;17.83;15.73;;;;;;;9.00;37.60;97207.72;4993086;28;20640;-65
2022/01/12 10:17:36;;;;;;;19.50;15.52;;;;;;;9.00;38.12;97208.53;4993209;28;20054;-65
2022/01/12 10:20:19;;;;;;;17.55;15.32;;;;;;;8.67;37.70;97192.63;4992704;28;20084;-65
2022/01/12 10:23:07;;;;;;;29.10;15.98;;;;;;;8.58;38.26;97165.69;4994317;28;20022;-65
2022/01/12 10:25:34;;;;;;;17.85;15.32;;;;;;;8.74;37.68;97183.44;4994494;28;20114;-65
2022/01/12 10:28:13;;;;;;;24.17;17.80;;;;;;;8.69;37.77;97169.31;4992915;28;20481;-65
2022/01/12 10:30:39;;;;;;;22.58;17.52;;;;;;;7.98;38.57;97129.13;4993095;28;20027;-65
2022/01/12 10:33:10;;;;;;;17.75;15.80;;;;;;;7.84;38.03;97112.72;4993196;28;20026;-65
2022/01/12 10:35:40;;;;;;;19.60;16.55;;;;;;;8.45;38.98;97189.88;4993030;28;20429;-65
2022/01/12 10:38:14;;;;;;;28.55;16.55;;;;;;;8.27;38.87;97138.63;4991808;28;20026;-65
2022/01/12 10:40:54;;;;;;;21.33;16.00;;;;;;;8.57;38.30;97146.31;4993616;28;20044;-66
2022/01/12 10:43:40;;;;;;;19.65;16.08;;;;;;;8.92;38.07;97184.25;4992833;28;20030;-64
2022/01/12 10:46:11;;;;;;;20.25;17.23;;;;;;;9.04;38.03;97177.78;4992550;28;20026;-66
2022/01/12 10:48:46;;;;;;;25.60;18.17;;;;;;;8.83;37.08;97142.19;4992039;28;20119;-66
2022/01/12 10:51:22;;;;;;;20.63;17.55;;;;;;;8.56;37.57;97134.09;4992086;28;20046;-64
2022/01/12 10:53:50;;;;;;;25.20;18.50;;;;;;;8.87;37.51;97174.38;4993572;28;20034;-65
2022/01/12 10:56:19;;;;;;;21.08;18.10;;;;;;;8.97;37.28;97195.75;4991396;28;20431;-65
2022/01/12 10:58:46;;;;;;;21.25;16.83;;;;;;;8.21;37.58;97192.63;4992466;28;20035;-64
2022/01/12 11:01:13;;;;;;;25.38;18.25;;;;;;;7.77;38.61;97173.78;4992369;28;20113;-65
2022/01/12 11:03:40;;;;;;;20.77;17.67;;;;;;;7.70;38.58;97135.25;4992768;28;20598;-65
2022/01/12 11:06:07;;;;;;;18.45;16.17;;;;;;;7.69;38.25;97129.13;4992362;28;20366;-65
2022/01/12 11:08:34;;;;;;;25.85;18.50;;;;;;;8.28;38.43;97190.63;4991978;28;20034;-66
2022/01/12 11:10:59;;;;;;;26.13;16.77;;;;;;;8.55;38.43;97205.97;4992914;28;20384;-66
2022/01/12 11:13:27;;;;;;;22.20;17.05;;;;;;;8.85;37.47;97189.72;4992088;28;20026;-65
2022/01/12 11:15:54;;;;;;;22.67;16.67;;;;;;;8.76;36.60;97133.63;4990843;28;20114;-65
2022/01/12 11:18:22;;;;;;;21.15;16.48;;;;;;;9.44;36.49;97191.88;4991840;28;20097;-65
2022/01/12 11:20:50;;;;;;;21.27;16.58;;;;;;;9.26;36.18;97175.16;4991484;28;20034;-65
2022/01/12 11:23:18;;;;;;;23.08;17.85;;;;;;;9.19;36.06;97141.88;4991571;28;20097;-65
2022/01/12 11:25:49;;;;;;;23.40;18.38;;;;;;;9.08;35.83;97104.59;4993252;28;20023;-66
2022/01/12 11:28:21;;;;;;;22.07;19.07;;;;;;;9.47;36.27;97188.72;4991589;28;20096;-69
2022/01/12 11:30:50;;;;;;;24.45;18.83;;;;;;;9.40;36.57;97186.25;4991544;28;20074;-68
2022/01/12 11:33:17;;;;;;;26.77;19.08;;;;;;;8.88;36.90;97108.81;4991894;28;20030;-66
2022/01/12 11:35:48;;;;;;;20.52;17.95;;;;;;;9.15;36.35;97186.69;4991471;28;20053;-66
2022/01/12 11:38:31;;;;;;;23.52;19.92;;;;;;;8.84;37.23;97150.97;4990762;28;20029;-66
2022/01/12 11:41:13;;;;;;;27.60;19.00;;;;;;;8.17;37.47;97111.16;4989895;28;20569;-67
2022/01/12 11:43:47;;;;;;;26.80;19.70;;;;;;;9.00;37.24;97154.63;4991711;28;20033;-66
2022/01/12 11:46:21;;;;;;;25.05;19.45;;;;;;;8.75;37.10;97078.94;4991743;28;20026;-67
2022/01/12 11:48:55;;;;;;;24.00;19.08;;;;;;;9.09;36.71;97113.34;4991244;28;20026;-66
2022/01/12 11:51:42;;;;;;;25.83;20.00;;;;;;;9.14;36.27;97176.34;4991899;28;20030;-68
2022/01/12 11:54:16;;;;;;;26.77;19.40;;;;;;;9.38;37.21;97167.91;4992456;28;20434;-66
2022/01/12 11:56:59;;;;;;;34.25;19.70;;;;;;;9.40;36.61;97132.31;4991304;28;20031;-68
2022/01/12 11:59:28;;;;;;;31.55;19.80;;;;;;;9.59;36.53;97128.31;4990738;28;20527;-66
2022/01/12 12:02:07;;;;;;;30.65;19.92;;;;;;;8.58;37.28;97112.63;4991481;28;20033;-67
2022/01/12 12:04:33;;;;;;;29.23;20.52;;;;;;;9.13;36.95;97151.63;4991360;28;20037;-67
2022/01/12 12:07:08;;;;;;;28.38;21.33;;;;;;;9.04;37.11;97182.31;4991278;28;20038;-68
2022/01/12 12:09:56;;;;;;;28.33;21.35;;;;;;;8.91;36.95;97145.50;4991672;28;20030;-66
2022/01/12 12:12:30;;;;;;;29.42;21.15;;;;;;;9.22;36.93;97165.31;4985068;28;20026;-67
2022/01/12 12:14:58;;;;;;;37.72;21.70;;;;;;;8.93;36.84;97181.34;4991029;28;20126;-66
2022/01/12 12:17:27;;;;;;;28.67;19.77;;;;;;;5.37;42.56;97140.06;4990964;28;20538;-66
2022/01/12 12:19:54;;;;;;;32.78;20.13;;;;;;;4.28;46.18;97183.72;4990551;28;20074;-66
2022/01/12 12:22:21;;;;;;;31.65;21.15;;;;;;;4.27;47.34;97225.06;4990530;28;20540;-66
2022/01/12 12:24:52;;;;;;;32.53;20.55;;;;;;;3.05;51.08;97213.59;4992133;28;20034;-66
2022/01/12 12:27:20;;;;;;;31.40;20.95;;;;;;;4.47;47.80;97205.69;4990702;28;20113;-68
2022/01/12 12:29:48;;;;;;;28.35;18.80;;;;;;;3.65;49.21;97223.97;4989183;28;20029;-66
2022/01/12 12:32:15;;;;;;;31.60;21.50;;;;;;;3.46;50.93;97225.66;4990456;28;20030;-68
2022/01/12 12:34:43;;;;;;;36.60;21.95;;;;;;;5.08;47.19;97216.31;4990695;28;20106;-67
2022/01/12 12:37:11;;;;;;;36.35;22.17;;;;;;;5.98;45.17;97199.84;4989084;28;20408;-67
2022/01/12 12:39:40;;;;;;;38.85;24.95;;;;;;;5.67;45.12;97201.63;4991230;28;20106;-66